sensor_id;sensor_type;location;lat;lon;timestamp;pressure;altitude;pressure_sealevel;temperature;humidity
46944;BME280;32678;43.852;25.952;2022-08-03T00:04:31;101055.16;;;28.37;42.16
46944;BME280;32678;43.852;25.952;2022-08-03T00:09:29;101049.06;;;28.35;41.99
46944;BME280;32678;43.852;25.952;2022-08-03T00:14:31;101045.72;;;28.33;42.08
46944;BME280;32678;43.852;25.952;2022-08-03T00:19:28;101038.84;;;28.39;42.04
46944;BME280;32678;43.852;25.952;2022-08-03T00:24:25;101034.84;;;28.25;42.15
46944;BME280;32678;43.852;25.952;2022-08-03T00:29:22;101042.09;;;28.25;42.38
46944;BME280;32678;43.852;25.952;2022-08-03T00:34:18;101047.47;;;28.25;42.33
46944;BME280;32678;43.852;25.952;2022-08-03T00:39:32;101046.81;;;28.49;41.97
46944;BME280;32678;43.852;25.952;2022-08-03T00:44:30;101054.06;;;28.48;42.14
46944;BME280;32678;43.852;25.952;2022-08-03T00:49:27;101052.81;;;28.34;41.98
46944;BME280;32678;43.852;25.952;2022-08-03T00:54:24;101052.09;;;28.32;42.42
46944;BME280;32678;43.852;25.952;2022-08-03T00:59:21;101049.13;;;28.18;42.27
46944;BME280;32678;43.852;25.952;2022-08-03T01:04:18;101060.25;;;28.15;42.57
46944;BME280;32678;43.852;25.952;2022-08-03T01:09:17;101061.28;;;27.86;42.79
46944;BME280;32678;43.852;25.952;2022-08-03T01:14:17;101071.28;;;27.58;43.79
46944;BME280;32678;43.852;25.952;2022-08-03T01:19:22;101060.59;;;28.02;43.10
46944;BME280;32678;43.852;25.952;2022-08-03T01:24:29;101066.94;;;27.75;43.70
46944;BME280;32678;43.852;25.952;2022-08-03T01:29:46;101066.28;;;27.81;43.63
46944;BME280;32678;43.852;25.952;2022-08-03T01:34:46;101062.00;;;27.71;43.86
46944;BME280;32678;43.852;25.952;2022-08-03T01:39:44;101067.75;;;27.58;44.11
46944;BME280;32678;43.852;25.952;2022-08-03T01:44:41;101065.84;;;27.68;43.62
46944;BME280;32678;43.852;25.952;2022-08-03T01:49:42;101065.28;;;27.82;43.27
46944;BME280;32678;43.852;25.952;2022-08-03T01:54:41;101066.09;;;27.47;43.92
46944;BME280;32678;43.852;25.952;2022-08-03T01:59:38;101079.16;;;27.42;44.18
46944;BME280;32678;43.852;25.952;2022-08-03T02:04:35;101065.97;;;27.67;44.02
46944;BME280;32678;43.852;25.952;2022-08-03T02:09:36;101068.47;;;27.60;44.08
46944;BME280;32678;43.852;25.952;2022-08-03T02:14:34;101059.91;;;27.65;43.58
46944;BME280;32678;43.852;25.952;2022-08-03T02:19:31;101066.06;;;27.30;44.70
46944;BME280;32678;43.852;25.952;2022-08-03T02:24:31;101060.53;;;27.58;44.07
46944;BME280;32678;43.852;25.952;2022-08-03T02:29:30;101062.75;;;27.63;43.65
46944;BME280;32678;43.852;25.952;2022-08-03T02:34:35;101072.91;;;27.87;43.30
46944;BME280;32678;43.852;25.952;2022-08-03T02:39:33;101067.06;;;27.56;43.95
46944;BME280;32678;43.852;25.952;2022-08-03T02:44:31;101070.31;;;27.77;43.57
46944;BME280;32678;43.852;25.952;2022-08-03T02:49:29;101074.28;;;27.91;42.90
46944;BME280;32678;43.852;25.952;2022-08-03T02:54:46;101071.75;;;28.07;42.68
46944;BME280;32678;43.852;25.952;2022-08-03T02:59:45;101070.38;;;28.03;43.28
46944;BME280;32678;43.852;25.952;2022-08-03T03:04:42;101073.72;;;28.15;43.07
46944;BME280;32678;43.852;25.952;2022-08-03T03:09:59;101074.53;;;27.97;45.62
46944;BME280;32678;43.852;25.952;2022-08-03T03:14:57;101081.88;;;28.23;44.64
46944;BME280;32678;43.852;25.952;2022-08-03T03:19:54;101083.25;;;28.27;42.45
46944;BME280;32678;43.852;25.952;2022-08-03T03:24:52;101080.53;;;28.27;42.86
46944;BME280;32678;43.852;25.952;2022-08-03T03:29:50;101089.72;;;28.34;43.25
46944;BME280;32678;43.852;25.952;2022-08-03T03:34:47;101088.41;;;28.20;43.14
46944;BME280;32678;43.852;25.952;2022-08-03T03:39:46;101093.50;;;28.23;42.69
46944;BME280;32678;43.852;25.952;2022-08-03T03:44:43;101094.78;;;28.37;45.83
46944;BME280;32678;43.852;25.952;2022-08-03T03:49:40;101104.94;;;28.43;46.37
46944;BME280;32678;43.852;25.952;2022-08-03T03:54:38;101102.28;;;28.51;47.39
46944;BME280;32678;43.852;25.952;2022-08-03T03:59:36;101101.53;;;28.59;44.29
46944;BME280;32678;43.852;25.952;2022-08-03T04:04:33;101108.09;;;28.64;41.99
46944;BME280;32678;43.852;25.952;2022-08-03T04:09:48;101107.78;;;28.41;42.11
46944;BME280;32678;43.852;25.952;2022-08-03T04:15:10;101114.06;;;28.24;42.23
46944;BME280;32678;43.852;25.952;2022-08-03T04:20:08;101115.72;;;28.08;42.70
46944;BME280;32678;43.852;25.952;2022-08-03T04:25:08;101115.22;;;28.22;42.75
46944;BME280;32678;43.852;25.952;2022-08-03T04:30:06;101111.56;;;28.31;42.19
46944;BME280;32678;43.852;25.952;2022-08-03T04:35:04;101119.91;;;28.37;42.11
46944;BME280;32678;43.852;25.952;2022-08-03T04:40:02;101119.94;;;28.46;41.87
46944;BME280;32678;43.852;25.952;2022-08-03T04:45:02;101118.44;;;28.43;41.87
46944;BME280;32678;43.852;25.952;2022-08-03T04:50:01;101119.19;;;28.35;41.82
46944;BME280;32678;43.852;25.952;2022-08-03T04:54:59;101121.28;;;28.41;41.68
46944;BME280;32678;43.852;25.952;2022-08-03T04:59:55;101127.38;;;28.43;41.48
46944;BME280;32678;43.852;25.952;2022-08-03T05:04:59;101125.16;;;28.39;41.29
46944;BME280;32678;43.852;25.952;2022-08-03T05:09:56;101131.72;;;28.62;41.31
46944;BME280;32678;43.852;25.952;2022-08-03T05:14:58;101131.38;;;28.65;41.19
46944;BME280;32678;43.852;25.952;2022-08-03T05:19:55;101136.03;;;28.55;41.47
46944;BME280;32678;43.852;25.952;2022-08-03T05:24:52;101148.50;;;28.74;41.12
46944;BME280;32678;43.852;25.952;2022-08-03T05:29:49;101147.41;;;28.84;40.23
46944;BME280;32678;43.852;25.952;2022-08-03T05:34:49;101150.06;;;28.76;40.02
46944;BME280;32678;43.852;25.952;2022-08-03T05:39:45;101149.34;;;29.00;39.63
46944;BME280;32678;43.852;25.952;2022-08-03T05:44:43;101156.72;;;29.16;39.15
46944;BME280;32678;43.852;25.952;2022-08-03T05:49:40;101165.06;;;29.05;38.85
46944;BME280;32678;43.852;25.952;2022-08-03T05:54:36;101165.31;;;29.19;38.73
46944;BME280;32678;43.852;25.952;2022-08-03T05:59:53;101171.44;;;29.21;38.16
46944;BME280;32678;43.852;25.952;2022-08-03T06:04:54;101156.72;;;29.16;37.64
46944;BME280;32678;43.852;25.952;2022-08-03T06:09:50;101167.69;;;29.22;37.98
46944;BME280;32678;43.852;25.952;2022-08-03T06:15:09;101162.44;;;28.87;40.01
46944;BME280;32678;43.852;25.952;2022-08-03T06:20:07;101171.84;;;29.09;41.95
46944;BME280;32678;43.852;25.952;2022-08-03T06:25:04;101161.25;;;28.90;41.91
46944;BME280;32678;43.852;25.952;2022-08-03T06:30:07;101170.53;;;28.43;42.63
46944;BME280;32678;43.852;25.952;2022-08-03T06:35:07;101172.69;;;28.22;38.33
46944;BME280;32678;43.852;25.952;2022-08-03T06:40:05;101179.59;;;28.25;37.62
46944;BME280;32678;43.852;25.952;2022-08-03T06:45:02;101180.06;;;28.20;38.12
46944;BME280;32678;43.852;25.952;2022-08-03T06:49:59;101169.59;;;28.53;37.17
46944;BME280;32678;43.852;25.952;2022-08-03T06:55:13;101174.59;;;28.48;37.82
46944;BME280;32678;43.852;25.952;2022-08-03T07:00:10;101173.63;;;27.86;41.30
46944;BME280;32678;43.852;25.952;2022-08-03T07:05:08;101165.66;;;28.47;37.71
46944;BME280;32678;43.852;25.952;2022-08-03T07:10:06;101176.13;;;28.94;36.28
46944;BME280;32678;43.852;25.952;2022-08-03T07:15:04;101173.03;;;28.80;36.80
46944;BME280;32678;43.852;25.952;2022-08-03T07:20:02;101174.63;;;28.91;36.40
46944;BME280;32678;43.852;25.952;2022-08-03T07:24:59;101174.88;;;28.44;39.24
46944;BME280;32678;43.852;25.952;2022-08-03T07:29:57;101177.81;;;27.98;40.26
46944;BME280;32678;43.852;25.952;2022-08-03T07:34:54;101179.47;;;28.26;38.59
46944;BME280;32678;43.852;25.952;2022-08-03T07:39:56;101181.16;;;28.27;38.66
46944;BME280;32678;43.852;25.952;2022-08-03T07:44:53;101179.19;;;28.55;38.66
46944;BME280;32678;43.852;25.952;2022-08-03T07:49:50;101179.38;;;28.71;37.36
46944;BME280;32678;43.852;25.952;2022-08-03T07:54:48;101179.31;;;28.28;39.85
46944;BME280;32678;43.852;25.952;2022-08-03T07:59:45;101192.00;;;28.00;40.54
46944;BME280;32678;43.852;25.952;2022-08-03T08:05:07;101193.72;;;27.91;39.34
46944;BME280;32678;43.852;25.952;2022-08-03T08:10:07;101198.09;;;28.37;38.60
46944;BME280;32678;43.852;25.952;2022-08-03T08:15:06;101203.50;;;28.73;36.95
46944;BME280;32678;43.852;25.952;2022-08-03T08:20:03;101190.53;;;28.76;37.20
46944;BME280;32678;43.852;25.952;2022-08-03T08:25:04;101196.53;;;28.70;36.72
46944;BME280;32678;43.852;25.952;2022-08-03T08:30:04;101195.84;;;28.51;37.05
46944;BME280;32678;43.852;25.952;2022-08-03T08:35:09;101192.88;;;28.54;36.52
46944;BME280;32678;43.852;25.952;2022-08-03T08:40:06;101193.72;;;28.98;36.36
46944;BME280;32678;43.852;25.952;2022-08-03T08:45:04;101197.94;;;29.00;36.43
46944;BME280;32678;43.852;25.952;2022-08-03T08:50:05;101168.69;;;28.70;37.31
46944;BME280;32678;43.852;25.952;2022-08-03T08:55:23;101201.78;;;28.54;37.87
46944;BME280;32678;43.852;25.952;2022-08-03T09:00:21;101196.50;;;29.32;37.69
46944;BME280;32678;43.852;25.952;2022-08-03T09:05:18;101202.63;;;29.42;37.48
46944;BME280;32678;43.852;25.952;2022-08-03T09:10:35;101199.19;;;29.65;36.39
46944;BME280;32678;43.852;25.952;2022-08-03T09:15:33;101188.66;;;29.62;35.62
46944;BME280;32678;43.852;25.952;2022-08-03T09:20:31;101187.53;;;29.31;36.54
46944;BME280;32678;43.852;25.952;2022-08-03T09:25:28;101178.22;;;29.67;35.82
46944;BME280;32678;43.852;25.952;2022-08-03T09:30:29;101170.56;;;29.89;35.60
46944;BME280;32678;43.852;25.952;2022-08-03T09:35:31;101172.13;;;30.32;34.85
46944;BME280;32678;43.852;25.952;2022-08-03T09:40:48;101158.25;;;30.27;34.14
46944;BME280;32678;43.852;25.952;2022-08-03T09:45:45;101161.25;;;29.91;34.92
46944;BME280;32678;43.852;25.952;2022-08-03T09:50:47;101154.72;;;30.26;33.94
46944;BME280;32678;43.852;25.952;2022-08-03T09:56:04;101156.94;;;30.47;33.94
46944;BME280;32678;43.852;25.952;2022-08-03T10:01:21;101152.69;;;30.36;33.86
46944;BME280;32678;43.852;25.952;2022-08-03T10:06:28;101145.91;;;30.81;33.85
46944;BME280;32678;43.852;25.952;2022-08-03T10:11:28;101142.69;;;31.02;32.66
46944;BME280;32678;43.852;25.952;2022-08-03T10:16:25;101130.38;;;31.30;31.79
46944;BME280;32678;43.852;25.952;2022-08-03T10:21:25;101130.22;;;30.68;32.63
46944;BME280;32678;43.852;25.952;2022-08-03T10:26:23;101126.50;;;30.53;33.14
46944;BME280;32678;43.852;25.952;2022-08-03T10:31:21;101107.50;;;30.85;32.62
46944;BME280;32678;43.852;25.952;2022-08-03T10:36:19;101122.72;;;31.03;32.33
46944;BME280;32678;43.852;25.952;2022-08-03T10:41:18;101104.09;;;31.08;32.64
46944;BME280;32678;43.852;25.952;2022-08-03T10:46:17;101104.66;;;31.65;31.93
46944;BME280;32678;43.852;25.952;2022-08-03T10:51:15;101096.97;;;31.76;31.14
46944;BME280;32678;43.852;25.952;2022-08-03T11:01:49;101082.38;;;31.77;30.43
46944;BME280;32678;43.852;25.952;2022-08-03T11:12:19;101080.72;;;31.07;32.70
46944;BME280;32678;43.852;25.952;2022-08-03T11:17:26;101076.53;;;31.35;31.84
46944;BME280;32678;43.852;25.952;2022-08-03T11:22:22;101067.63;;;31.49;30.84
46944;BME280;32678;43.852;25.952;2022-08-03T11:27:20;101073.59;;;31.75;30.75
46944;BME280;32678;43.852;25.952;2022-08-03T11:37:31;101049.00;;;31.77;30.08
46944;BME280;32678;43.852;25.952;2022-08-03T11:42:39;101055.16;;;31.71;29.90
46944;BME280;32678;43.852;25.952;2022-08-03T11:47:38;101038.50;;;31.97;29.93
46944;BME280;32678;43.852;25.952;2022-08-03T11:52:49;101033.56;;;31.24;30.79
46944;BME280;32678;43.852;25.952;2022-08-03T11:57:46;101039.19;;;31.14;30.92
46944;BME280;32678;43.852;25.952;2022-08-03T12:03:05;101029.41;;;31.67;30.91
46944;BME280;32678;43.852;25.952;2022-08-03T12:08:04;101027.34;;;31.92;30.55
46944;BME280;32678;43.852;25.952;2022-08-03T12:13:03;101020.94;;;32.07;29.91
46944;BME280;32678;43.852;25.952;2022-08-03T12:18:22;101013.56;;;32.39;29.42
46944;BME280;32678;43.852;25.952;2022-08-03T12:23:20;101016.84;;;32.49;28.66
46944;BME280;32678;43.852;25.952;2022-08-03T12:28:18;101013.34;;;32.25;28.53
46944;BME280;32678;43.852;25.952;2022-08-03T12:38:52;101010.03;;;32.82;27.83
46944;BME280;32678;43.852;25.952;2022-08-03T12:43:50;101006.00;;;32.93;27.04
46944;BME280;32678;43.852;25.952;2022-08-03T12:49:04;100999.03;;;32.46;26.49
46944;BME280;32678;43.852;25.952;2022-08-03T12:54:02;100997.75;;;32.57;26.53
46944;BME280;32678;43.852;25.952;2022-08-03T12:59:00;100985.88;;;31.91;28.98
46944;BME280;32678;43.852;25.952;2022-08-03T13:04:24;101005.59;;;32.00;28.57
46944;BME280;32678;43.852;25.952;2022-08-03T13:09:25;100991.09;;;31.93;28.29
46944;BME280;32678;43.852;25.952;2022-08-03T13:14:21;100983.59;;;32.17;28.02
46944;BME280;32678;43.852;25.952;2022-08-03T13:19:21;100984.16;;;32.28;26.89
46944;BME280;32678;43.852;25.952;2022-08-03T13:24:18;100982.00;;;32.38;26.91
46944;BME280;32678;43.852;25.952;2022-08-03T13:29:15;100979.97;;;32.25;27.00
46944;BME280;32678;43.852;25.952;2022-08-03T13:34:12;100974.34;;;32.56;26.71
46944;BME280;32678;43.852;25.952;2022-08-03T13:39:09;100975.59;;;32.68;25.74
46944;BME280;32678;43.852;25.952;2022-08-03T13:44:09;100969.44;;;32.95;25.68
46944;BME280;32678;43.852;25.952;2022-08-03T13:49:25;100963.59;;;33.13;24.95
46944;BME280;32678;43.852;25.952;2022-08-03T13:54:22;100959.34;;;32.31;25.44
46944;BME280;32678;43.852;25.952;2022-08-03T13:59:19;100965.00;;;32.44;25.05
46944;BME280;32678;43.852;25.952;2022-08-03T14:04:16;100962.28;;;32.58;24.55
46944;BME280;32678;43.852;25.952;2022-08-03T14:09:18;100949.28;;;32.24;25.00
46944;BME280;32678;43.852;25.952;2022-08-03T14:14:15;100952.81;;;32.10;26.47
46944;BME280;32678;43.852;25.952;2022-08-03T14:19:12;100944.94;;;31.78;26.87
46944;BME280;32678;43.852;25.952;2022-08-03T14:24:11;100954.50;;;31.89;24.85
46944;BME280;32678;43.852;25.952;2022-08-03T14:29:08;100946.84;;;32.15;24.19
46944;BME280;32678;43.852;25.952;2022-08-03T14:34:05;100950.13;;;32.40;23.62
46944;BME280;32678;43.852;25.952;2022-08-03T14:39:02;100935.50;;;32.26;24.29
46944;BME280;32678;43.852;25.952;2022-08-03T14:43:58;100935.72;;;32.24;25.06
46944;BME280;32678;43.852;25.952;2022-08-03T14:48:58;100938.97;;;32.20;24.19
46944;BME280;32678;43.852;25.952;2022-08-03T14:54:15;100939.63;;;32.51;24.18
46944;BME280;32678;43.852;25.952;2022-08-03T14:59:14;100931.69;;;32.50;23.93
46944;BME280;32678;43.852;25.952;2022-08-03T15:04:11;100935.31;;;32.57;23.86
46944;BME280;32678;43.852;25.952;2022-08-03T15:09:08;100927.34;;;32.26;24.47
46944;BME280;32678;43.852;25.952;2022-08-03T15:14:19;100928.88;;;32.43;24.34
46944;BME280;32678;43.852;25.952;2022-08-03T15:19:24;100914.19;;;32.38;24.54
46944;BME280;32678;43.852;25.952;2022-08-03T15:24:43;100921.19;;;32.47;24.97
46944;BME280;32678;43.852;25.952;2022-08-03T15:29:40;100921.47;;;32.37;24.94
46944;BME280;32678;43.852;25.952;2022-08-03T15:34:58;100904.06;;;32.32;24.80
46944;BME280;32678;43.852;25.952;2022-08-03T15:39:55;100910.78;;;32.50;24.58
46944;BME280;32678;43.852;25.952;2022-08-03T15:44:55;100910.88;;;32.72;23.79
46944;BME280;32678;43.852;25.952;2022-08-03T15:49:52;100909.19;;;32.71;23.94
46944;BME280;32678;43.852;25.952;2022-08-03T15:54:50;100904.03;;;32.76;24.04
46944;BME280;32678;43.852;25.952;2022-08-03T15:59:46;100897.03;;;32.52;24.23
46944;BME280;32678;43.852;25.952;2022-08-03T16:04:43;100902.72;;;32.57;24.28
46944;BME280;32678;43.852;25.952;2022-08-03T16:09:40;100903.56;;;32.57;23.90
46944;BME280;32678;43.852;25.952;2022-08-03T16:14:40;100911.25;;;32.54;24.44
46944;BME280;32678;43.852;25.952;2022-08-03T16:19:48;100905.56;;;32.63;23.79
46944;BME280;32678;43.852;25.952;2022-08-03T16:24:45;100911.56;;;32.30;24.11
46944;BME280;32678;43.852;25.952;2022-08-03T16:29:42;100900.91;;;32.28;24.01
46944;BME280;32678;43.852;25.952;2022-08-03T16:34:39;100906.13;;;32.30;24.46
46944;BME280;32678;43.852;25.952;2022-08-03T16:39:36;100904.00;;;32.10;24.83
46944;BME280;32678;43.852;25.952;2022-08-03T16:44:33;100905.84;;;32.39;24.94
46944;BME280;32678;43.852;25.952;2022-08-03T16:49:32;100910.47;;;32.60;24.10
46944;BME280;32678;43.852;25.952;2022-08-03T16:54:49;100911.41;;;32.82;24.20
46944;BME280;32678;43.852;25.952;2022-08-03T16:59:50;100915.16;;;32.81;24.03
46944;BME280;32678;43.852;25.952;2022-08-03T17:04:47;100915.88;;;32.89;23.64
46944;BME280;32678;43.852;25.952;2022-08-03T17:09:45;100916.28;;;32.86;23.62
46944;BME280;32678;43.852;25.952;2022-08-03T17:14:42;100918.09;;;32.79;24.12
46944;BME280;32678;43.852;25.952;2022-08-03T17:19:39;100922.56;;;32.87;24.14
46944;BME280;32678;43.852;25.952;2022-08-03T17:24:44;100936.97;;;32.87;24.08
46944;BME280;32678;43.852;25.952;2022-08-03T17:29:42;100935.47;;;32.85;24.14
46944;BME280;32678;43.852;25.952;2022-08-03T17:34:41;100935.09;;;32.88;23.90
46944;BME280;32678;43.852;25.952;2022-08-03T17:39:38;100940.25;;;32.83;23.88
46944;BME280;32678;43.852;25.952;2022-08-03T17:44:56;100942.97;;;32.83;24.32
46944;BME280;32678;43.852;25.952;2022-08-03T17:49:53;100951.31;;;32.81;24.20
46944;BME280;32678;43.852;25.952;2022-08-03T17:54:51;100953.13;;;32.74;23.95
46944;BME280;32678;43.852;25.952;2022-08-03T18:00:16;100957.03;;;32.72;24.18
46944;BME280;32678;43.852;25.952;2022-08-03T18:05:38;100960.22;;;32.75;24.05
46944;BME280;32678;43.852;25.952;2022-08-03T18:10:58;100968.47;;;32.67;24.47
46944;BME280;32678;43.852;25.952;2022-08-03T18:16:06;100962.84;;;32.54;24.47
46944;BME280;32678;43.852;25.952;2022-08-03T18:21:05;100975.84;;;32.58;24.85
46944;BME280;32678;43.852;25.952;2022-08-03T18:26:06;100996.72;;;32.43;24.84
46944;BME280;32678;43.852;25.952;2022-08-03T18:31:08;100993.03;;;32.36;25.13
46944;BME280;32678;43.852;25.952;2022-08-03T18:36:07;100997.31;;;32.16;25.26
46944;BME280;32678;43.852;25.952;2022-08-03T18:41:04;100995.09;;;31.97;25.65
46944;BME280;32678;43.852;25.952;2022-08-03T18:46:17;101005.09;;;31.96;25.46
46944;BME280;32678;43.852;25.952;2022-08-03T18:51:19;101015.41;;;31.86;25.73
46944;BME280;32678;43.852;25.952;2022-08-03T18:56:30;101019.31;;;31.61;26.17
46944;BME280;32678;43.852;25.952;2022-08-03T19:01:35;101026.59;;;31.52;26.23
46944;BME280;32678;43.852;25.952;2022-08-03T19:06:56;101033.66;;;31.38;26.55
46944;BME280;32678;43.852;25.952;2022-08-03T19:11:55;101032.84;;;31.30;26.58
46944;BME280;32678;43.852;25.952;2022-08-03T19:17:13;101037.47;;;31.21;26.82
46944;BME280;32678;43.852;25.952;2022-08-03T19:22:17;101042.59;;;31.16;26.83
46944;BME280;32678;43.852;25.952;2022-08-03T19:27:15;101052.03;;;31.20;26.97
46944;BME280;32678;43.852;25.952;2022-08-03T19:32:14;101056.34;;;31.07;27.08
46944;BME280;32678;43.852;25.952;2022-08-03T19:37:12;101045.91;;;30.79;27.41
46944;BME280;32678;43.852;25.952;2022-08-03T19:42:11;101066.44;;;30.66;27.81
46944;BME280;32678;43.852;25.952;2022-08-03T19:47:20;101067.09;;;30.60;27.89
46944;BME280;32678;43.852;25.952;2022-08-03T19:52:25;101066.81;;;30.46;28.04
46944;BME280;32678;43.852;25.952;2022-08-03T19:57:44;101067.66;;;30.23;28.56
46944;BME280;32678;43.852;25.952;2022-08-03T20:02:45;101075.09;;;30.21;28.73
46944;BME280;32678;43.852;25.952;2022-08-03T20:07:46;101082.69;;;30.25;28.62
46944;BME280;32678;43.852;25.952;2022-08-03T20:12:44;101082.69;;;30.25;28.70
46944;BME280;32678;43.852;25.952;2022-08-03T20:17:41;101087.09;;;30.34;28.68
46944;BME280;32678;43.852;25.952;2022-08-03T20:22:55;101087.09;;;30.18;29.08
46944;BME280;32678;43.852;25.952;2022-08-03T20:27:56;101089.13;;;30.08;29.07
46944;BME280;32678;43.852;25.952;2022-08-03T20:33:08;101082.63;;;29.77;29.41
46944;BME280;32678;43.852;25.952;2022-08-03T20:38:06;101090.72;;;29.60;29.99
46944;BME280;32678;43.852;25.952;2022-08-03T20:43:04;101091.31;;;29.38;30.09
46944;BME280;32678;43.852;25.952;2022-08-03T20:48:00;101092.88;;;29.41;30.20
46944;BME280;32678;43.852;25.952;2022-08-03T20:52:59;101095.13;;;29.19;30.56
46944;BME280;32678;43.852;25.952;2022-08-03T20:58:00;101099.28;;;29.06;30.89
46944;BME280;32678;43.852;25.952;2022-08-03T21:02:58;101103.00;;;28.79;31.20
46944;BME280;32678;43.852;25.952;2022-08-03T21:07:56;101114.66;;;28.79;31.49
46944;BME280;32678;43.852;25.952;2022-08-03T21:13:04;101085.69;;;28.90;31.15
46944;BME280;32678;43.852;25.952;2022-08-03T21:18:18;101106.06;;;29.18;30.91
46944;BME280;32678;43.852;25.952;2022-08-03T21:23:16;101105.66;;;29.31;30.68
46944;BME280;32678;43.852;25.952;2022-08-03T21:28:35;101113.47;;;29.42;30.67
46944;BME280;32678;43.852;25.952;2022-08-03T21:33:33;101098.84;;;29.68;30.14
46944;BME280;32678;43.852;25.952;2022-08-03T21:38:30;101124.38;;;29.82;30.18
46944;BME280;32678;43.852;25.952;2022-08-03T21:43:27;101127.94;;;29.83;30.34
46944;BME280;32678;43.852;25.952;2022-08-03T21:48:25;101125.06;;;29.76;30.19
46944;BME280;32678;43.852;25.952;2022-08-03T21:53:22;101128.66;;;29.93;30.13
46944;BME280;32678;43.852;25.952;2022-08-03T21:58:42;101127.31;;;29.89;30.28
46944;BME280;32678;43.852;25.952;2022-08-03T22:03:47;101130.00;;;29.97;30.16
46944;BME280;32678;43.852;25.952;2022-08-03T22:08:49;101132.72;;;29.97;30.08
46944;BME280;32678;43.852;25.952;2022-08-03T22:13:47;101135.44;;;30.05;30.09
46944;BME280;32678;43.852;25.952;2022-08-03T22:18:44;101138.50;;;30.10;29.62
46944;BME280;32678;43.852;25.952;2022-08-03T22:23:42;101139.16;;;30.04;30.03
46944;BME280;32678;43.852;25.952;2022-08-03T22:28:42;101141.34;;;30.00;30.08
46944;BME280;32678;43.852;25.952;2022-08-03T22:33:39;101142.88;;;30.03;29.96
46944;BME280;32678;43.852;25.952;2022-08-03T22:38:35;101133.22;;;29.92;30.09
46944;BME280;32678;43.852;25.952;2022-08-03T22:43:33;101135.25;;;29.90;30.08
46944;BME280;32678;43.852;25.952;2022-08-03T22:48:32;101136.59;;;30.02;30.40
46944;BME280;32678;43.852;25.952;2022-08-03T22:53:30;101132.31;;;29.84;32.86
46944;BME280;32678;43.852;25.952;2022-08-03T22:58:27;101129.00;;;29.90;33.69
46944;BME280;32678;43.852;25.952;2022-08-03T23:03:25;101132.19;;;30.01;33.32
46944;BME280;32678;43.852;25.952;2022-08-03T23:08:42;101140.50;;;30.08;32.82
46944;BME280;32678;43.852;25.952;2022-08-03T23:13:42;101139.81;;;30.06;32.99
46944;BME280;32678;43.852;25.952;2022-08-03T23:18:42;101132.03;;;30.11;33.29
46944;BME280;32678;43.852;25.952;2022-08-03T23:23:42;101138.81;;;30.07;35.34
46944;BME280;32678;43.852;25.952;2022-08-03T23:28:42;101140.19;;;30.27;36.40
46944;BME280;32678;43.852;25.952;2022-08-03T23:33:40;101157.88;;;29.47;39.32
46944;BME280;32678;43.852;25.952;2022-08-03T23:38:40;101155.41;;;29.28;39.58
46944;BME280;32678;43.852;25.952;2022-08-03T23:43:37;101152.91;;;29.01;40.08
46944;BME280;32678;43.852;25.952;2022-08-03T23:48:48;101159.03;;;29.11;39.23
46944;BME280;32678;43.852;25.952;2022-08-03T23:53:47;101163.94;;;28.81;38.50
46944;BME280;32678;43.852;25.952;2022-08-03T23:58:50;101171.66;;;28.76;38.92
